PWSweather.com
Personal Weather Stations
Station Observations
MDHALE1
Southwest Baltimore Co., Halethorpe, MD 21227

Southwest Baltimore Co.Halethorpe, MD 21227

Lat: 39.23643, Lon: -76.696959

Elevation: 86

Station Type: Davis Vantage Pro2+

http://www.halethorpeweather.com

Latest ConditionsUpdated 11:30:03 PM EDT Sunday, May 19, 2019
Currently Today's Max Today's Min Today's Average
Temperature 74.8°F23.8°C 87.6°F30.9°C 60.8°F16.0°C 74.2°F23.4°C
Dew Point 71.0°F21.7°C 77.9°F25.5°C 58.8°F14.9°C 68.8°F20.4°C
Winds 2.3 mph S3.7 kmh S 11.5 mph -18.5 kmh - - 2.4 mph 3.9 kmh
Wind Gusts 4.6 mph7.4 kmh 13.8 mph22.2 kmh - -
Humidity 88% 93% 71% 84%
Pressure 29.87 in1011.5 mb 30.04 in1017.3 mb 29.83 in1010.2 mb -
Precipitation - 0.01 in0.3 mm - -
Hour Temp Dew Point Humidity Winds Wind Gusts Pressure Precip Precip Rate Daily Precip Total
11:30 PM 74.8°F23.8°C 71.0°F21.7°C 88% 2.3 mph S3.7 kmh S 4.6 mph7.4 kmh 29.87 in1011.5 mb - 0.00 in0.0 mm 0.01 in0.3 mm
11:15 PM 75.4°F24.1°C 71.2°F21.8°C 87% 2.3 mph S3.7 kmh S 2.3 mph3.7 kmh 29.87 in1011.5 mb - 0.00 in0.0 mm 0.01 in0.3 mm
11:00 PM 75.8°F24.3°C 71.7°F22.1°C 87% Calm Calm 2.3 mph3.7 kmh 29.87 in1011.5 mb - 0.00 in0.0 mm 0.01 in0.3 mm
10:45 PM 76.4°F24.7°C 72.3°F22.4°C 87% 1.2 mph SSE1.9 kmh SSE 1.2 mph1.9 kmh 29.87 in1011.5 mb - 0.00 in0.0 mm 0.01 in0.3 mm
10:30 PM 77.1°F25.1°C 72.5°F22.5°C 86% 1.2 mph S1.9 kmh S 2.3 mph3.7 kmh 29.86 in1011.2 mb - 0.00 in0.0 mm 0.01 in0.3 mm
10:15 PM 77.2°F25.1°C 72.4°F22.4°C 85% 2.3 mph SE3.7 kmh SE 3.5 mph5.6 kmh 29.87 in1011.5 mb - 0.00 in0.0 mm 0.01 in0.3 mm
10:00 PM 77.5°F25.3°C 72.6°F22.6°C 85% 1.2 mph S1.9 kmh S 1.2 mph1.9 kmh 29.86 in1011.2 mb - 0.00 in0.0 mm 0.01 in0.3 mm
09:45 PM 77.9°F25.5°C 72.7°F22.6°C 84% 1.2 mph S1.9 kmh S 2.3 mph3.7 kmh 29.86 in1011.2 mb - 0.00 in0.0 mm 0.01 in0.3 mm
09:30 PM 77.6°F25.3°C 72.8°F22.7°C 85% 1.2 mph SSW1.9 kmh SSW 3.5 mph5.6 kmh 29.86 in1011.2 mb - 0.00 in0.0 mm 0.01 in0.3 mm
09:15 PM 77.6°F25.3°C 72.7°F22.6°C 85% 1.2 mph SW1.9 kmh SW 1.2 mph1.9 kmh 29.86 in1011.2 mb - 0.00 in0.0 mm 0.01 in0.3 mm
09:00 PM 78.9°F26.1°C 73.6°F23.1°C 84% 1.2 mph ESE1.9 kmh ESE 2.3 mph3.7 kmh 29.85 in1010.8 mb - 0.00 in0.0 mm 0.01 in0.3 mm
08:45 PM 79.4°F26.3°C 73.8°F23.2°C 83% 2.3 mph S3.7 kmh S 4.6 mph7.4 kmh 29.85 in1010.8 mb - 0.00 in0.0 mm 0.01 in0.3 mm
08:30 PM 79.6°F26.4°C 73.6°F23.1°C 82% 3.5 mph WSW5.6 kmh WSW 4.6 mph7.4 kmh 29.84 in1010.5 mb - 0.00 in0.0 mm 0.01 in0.3 mm
08:15 PM 80.1°F26.7°C 73.8°F23.2°C 81% 2.3 mph N3.7 kmh N 2.3 mph3.7 kmh 29.83 in1010.2 mb - 0.00 in0.0 mm 0.01 in0.3 mm
08:00 PM 81.0°F27.2°C 74.3°F23.5°C 80% 4.6 mph SE7.4 kmh SE 8.1 mph13.0 kmh 29.83 in1010.2 mb - 0.00 in0.0 mm 0.01 in0.3 mm
07:45 PM 81.6°F27.6°C 74.9°F23.8°C 80% 2.3 mph SSE3.7 kmh SSE 4.6 mph7.4 kmh 29.84 in1010.5 mb - 0.00 in0.0 mm 0.01 in0.3 mm
07:30 PM 82.3°F27.9°C 75.1°F23.9°C 79% 1.2 mph SSE1.9 kmh SSE 5.8 mph9.3 kmh 29.84 in1010.5 mb - 0.00 in0.0 mm 0.01 in0.3 mm
07:15 PM 82.9°F28.3°C 74.9°F23.8°C 77% 4.6 mph SE7.4 kmh SE 12.7 mph20.4 kmh 29.83 in1010.2 mb - 0.00 in0.0 mm 0.01 in0.3 mm
07:00 PM 83.2°F28.4°C 74.8°F23.8°C 76% 5.8 mph SE9.3 kmh SE 10.4 mph16.7 kmh 29.83 in1010.2 mb - 0.00 in0.0 mm 0.01 in0.3 mm
06:45 PM 83.5°F28.6°C 75.1°F23.9°C 76% 5.8 mph E9.3 kmh E 13.8 mph22.2 kmh 29.83 in1010.2 mb - 0.00 in0.0 mm 0.01 in0.3 mm
06:30 PM 83.4°F28.6°C 75.0°F23.9°C 76% 1.2 mph SE1.9 kmh SE 2.3 mph3.7 kmh 29.83 in1010.2 mb - 0.00 in0.0 mm 0.01 in0.3 mm
06:15 PM 83.3°F28.5°C 74.9°F23.8°C 76% 3.5 mph S5.6 kmh S 3.5 mph5.6 kmh 29.84 in1010.5 mb - 0.00 in0.0 mm 0.01 in0.3 mm
06:00 PM 84.1°F28.9°C 75.3°F24.1°C 75% 5.8 mph S9.3 kmh S 10.4 mph16.7 kmh 29.85 in1010.8 mb - 0.00 in0.0 mm 0.01 in0.3 mm
05:45 PM 84.9°F29.4°C 75.7°F24.3°C 74% 4.6 mph SSE7.4 kmh SSE 13.8 mph22.2 kmh 29.86 in1011.2 mb - 0.00 in0.0 mm 0.01 in0.3 mm
05:30 PM 85.5°F29.7°C 76.3°F24.6°C 74% 6.9 mph SSE11.1 kmh SSE 11.5 mph18.5 kmh 29.86 in1011.2 mb - 0.00 in0.0 mm 0.01 in0.3 mm
05:15 PM 85.9°F29.9°C 76.6°F24.8°C 74% 5.8 mph SSE9.3 kmh SSE 11.5 mph18.5 kmh 29.86 in1011.2 mb - 0.00 in0.0 mm 0.01 in0.3 mm
05:00 PM 86.4°F30.2°C 76.7°F24.8°C 73% 8.1 mph S13.0 kmh S 8.1 mph13.0 kmh 29.86 in1011.2 mb - 0.00 in0.0 mm 0.01 in0.3 mm
04:45 PM 86.5°F30.3°C 76.8°F24.9°C 73% 5.8 mph SE9.3 kmh SE 6.9 mph11.1 kmh 29.87 in1011.5 mb - 0.00 in0.0 mm 0.01 in0.3 mm
04:30 PM 87.0°F30.6°C 77.7°F25.4°C 74% 2.3 mph E3.7 kmh E 8.1 mph13.0 kmh 29.88 in1011.9 mb - 0.00 in0.0 mm 0.01 in0.3 mm
04:15 PM 86.8°F30.4°C 77.1°F25.1°C 73% 11.5 mph SE18.5 kmh SE 11.5 mph18.5 kmh 29.89 in1012.2 mb - 0.00 in0.0 mm 0.01 in0.3 mm
04:00 PM 86.2°F30.1°C 76.9°F24.9°C 74% 9.2 mph SE14.8 kmh SE 10.4 mph16.7 kmh 29.90 in1012.5 mb - 0.00 in0.0 mm 0.01 in0.3 mm
03:45 PM 86.7°F30.4°C 76.6°F24.8°C 72% 6.9 mph SE11.1 kmh SE 9.2 mph14.8 kmh 29.90 in1012.5 mb - 0.00 in0.0 mm 0.01 in0.3 mm
03:30 PM 86.5°F30.3°C 76.8°F24.9°C 73% 3.5 mph ESE5.6 kmh ESE 9.2 mph14.8 kmh 29.91 in1012.9 mb - 0.00 in0.0 mm 0.01 in0.3 mm
03:15 PM 86.5°F30.3°C 77.2°F25.1°C 74% 3.5 mph SE5.6 kmh SE 11.5 mph18.5 kmh 29.91 in1012.9 mb - 0.00 in0.0 mm 0.01 in0.3 mm
03:00 PM 86.7°F30.4°C 77.4°F25.2°C 74% 4.6 mph ESE7.4 kmh ESE 4.6 mph7.4 kmh 29.92 in1013.2 mb - 0.00 in0.0 mm 0.01 in0.3 mm
02:45 PM 86.2°F30.1°C 76.9°F24.9°C 74% 4.6 mph SE7.4 kmh SE 8.1 mph13.0 kmh 29.92 in1013.2 mb - 0.00 in0.0 mm 0.01 in0.3 mm
02:30 PM 87.6°F30.9°C 77.9°F25.5°C 73% 4.6 mph SE7.4 kmh SE 8.1 mph13.0 kmh 29.93 in1013.5 mb - 0.00 in0.0 mm 0.01 in0.3 mm
02:15 PM 87.0°F30.6°C 77.3°F25.2°C 73% 4.6 mph ESE7.4 kmh ESE 8.1 mph13.0 kmh 29.93 in1013.5 mb - 0.00 in0.0 mm 0.01 in0.3 mm
02:00 PM 87.3°F30.7°C 77.1°F25.1°C 72% 4.6 mph NE7.4 kmh NE 3.5 mph5.6 kmh 29.94 in1013.9 mb - 0.00 in0.0 mm 0.01 in0.3 mm
01:45 PM 85.2°F29.6°C 76.0°F24.4°C 74% 3.5 mph SE5.6 kmh SE 3.5 mph5.6 kmh 29.95 in1014.2 mb - 0.00 in0.0 mm 0.01 in0.3 mm
01:30 PM 86.7°F30.4°C 76.1°F24.5°C 71% 2.3 mph E3.7 kmh E 6.9 mph11.1 kmh 29.95 in1014.2 mb - 0.00 in0.0 mm 0.01 in0.3 mm
01:15 PM 85.8°F29.9°C 76.1°F24.5°C 73% 3.5 mph SW5.6 kmh SW 3.5 mph5.6 kmh 29.96 in1014.6 mb - 0.00 in0.0 mm 0.01 in0.3 mm
01:00 PM 85.5°F29.7°C 75.4°F24.1°C 72% 4.6 mph SSW7.4 kmh SSW 8.1 mph13.0 kmh 29.97 in1014.9 mb - 0.00 in0.0 mm 0.01 in0.3 mm
12:45 PM 84.7°F29.3°C 75.9°F24.4°C 75% 2.3 mph SE3.7 kmh SE 2.3 mph3.7 kmh 29.97 in1014.9 mb - 0.00 in0.0 mm 0.01 in0.3 mm
12:15 PM 82.4°F28.0°C 73.7°F23.2°C 75% 2.3 mph SSW3.7 kmh SSW 2.3 mph3.7 kmh 29.98 in1015.2 mb - 0.00 in0.0 mm 0.01 in0.3 mm
12:00 PM 81.5°F27.5°C 72.8°F22.7°C 75% 2.3 mph SSE3.7 kmh SSE 4.6 mph7.4 kmh 29.98 in1015.2 mb - 0.00 in0.0 mm 0.01 in0.3 mm
11:45 AM 80.6°F27.0°C 73.1°F22.8°C 78% 4.6 mph SE7.4 kmh SE 5.8 mph9.3 kmh 29.99 in1015.6 mb - 0.00 in0.0 mm 0.01 in0.3 mm
11:30 AM 79.9°F26.6°C 72.4°F22.4°C 78% 4.6 mph ESE7.4 kmh ESE 5.8 mph9.3 kmh 29.99 in1015.6 mb - 0.00 in0.0 mm 0.01 in0.3 mm
11:15 AM 79.2°F26.2°C 72.5°F22.5°C 80% 2.3 mph E3.7 kmh E 9.2 mph14.8 kmh 29.99 in1015.6 mb - 0.00 in0.0 mm 0.01 in0.3 mm
11:00 AM 77.5°F25.3°C 70.8°F21.6°C 80% 2.3 mph SW3.7 kmh SW 5.8 mph9.3 kmh 29.99 in1015.6 mb - 0.00 in0.0 mm 0.01 in0.3 mm
10:45 AM 77.1°F25.1°C 70.4°F21.3°C 80% 2.3 mph SE3.7 kmh SE 3.5 mph5.6 kmh 30.00 in1015.9 mb - 0.00 in0.0 mm 0.01 in0.3 mm
10:30 AM 76.2°F24.6°C 70.7°F21.5°C 83% 3.5 mph NE5.6 kmh NE 3.5 mph5.6 kmh 30.00 in1015.9 mb - 0.00 in0.0 mm 0.01 in0.3 mm
10:15 AM 75.6°F24.2°C 70.4°F21.3°C 84% 4.6 mph SW7.4 kmh SW 8.1 mph13.0 kmh 30.00 in1015.9 mb - 0.00 in0.0 mm 0.01 in0.3 mm
10:00 AM 74.4°F23.6°C 69.2°F20.7°C 84% 2.3 mph SSW3.7 kmh SSW 4.6 mph7.4 kmh 30.01 in1016.3 mb - 0.00 in0.0 mm 0.01 in0.3 mm
09:45 AM 73.7°F23.2°C 69.2°F20.7°C 86% 3.5 mph SE5.6 kmh SE 4.6 mph7.4 kmh 30.01 in1016.3 mb - 0.00 in0.0 mm 0.01 in0.3 mm
09:30 AM 73.3°F22.9°C 68.5°F20.3°C 85% 1.2 mph WSW1.9 kmh WSW 3.5 mph5.6 kmh 30.01 in1016.3 mb - 0.00 in0.0 mm 0.01 in0.3 mm
09:15 AM 72.3°F22.4°C 67.9°F19.9°C 86% 2.3 mph S3.7 kmh S 2.3 mph3.7 kmh 30.01 in1016.3 mb - 0.00 in0.0 mm 0.01 in0.3 mm
09:00 AM 71.7°F22.1°C 67.6°F19.8°C 87% 1.2 mph SW1.9 kmh SW 3.5 mph5.6 kmh 30.01 in1016.3 mb - 0.00 in0.0 mm 0.01 in0.3 mm
08:45 AM 70.4°F21.3°C 66.7°F19.3°C 88% 2.3 mph SSE3.7 kmh SSE 4.6 mph7.4 kmh 30.01 in1016.3 mb - 0.00 in0.0 mm 0.01 in0.3 mm
08:30 AM 69.5°F20.8°C 66.1°F18.9°C 89% 1.2 mph SW1.9 kmh SW 3.5 mph5.6 kmh 30.01 in1016.3 mb - 0.00 in0.0 mm 0.01 in0.3 mm
08:15 AM 68.3°F20.2°C 64.9°F18.3°C 89% 2.3 mph E3.7 kmh E 2.3 mph3.7 kmh 30.01 in1016.3 mb - 0.00 in0.0 mm 0.01 in0.3 mm
08:04 AM 67.7°F19.8°C 64.7°F18.2°C 90% 1.2 mph E1.9 kmh E 2.3 mph3.7 kmh 30.01 in1016.3 mb - 0.00 in0.0 mm 0.01 in0.3 mm
08:00 AM 67.4°F19.7°C 64.7°F18.2°C 91% 1.2 mph NW1.9 kmh NW 1.2 mph1.9 kmh 30.01 in1016.3 mb - 0.00 in0.0 mm 0.01 in0.3 mm
07:45 AM 65.8°F18.8°C 63.4°F17.4°C 92% 1.2 mph NW1.9 kmh NW 2.3 mph3.7 kmh 30.02 in1016.6 mb - 0.00 in0.0 mm 0.01 in0.3 mm
07:30 AM 64.4°F18.0°C 62.3°F16.8°C 93% 1.2 mph NW1.9 kmh NW 1.2 mph1.9 kmh 30.02 in1016.6 mb - 0.00 in0.0 mm 0.01 in0.3 mm
07:15 AM 63.4°F17.4°C 61.4°F16.3°C 93% Calm Calm -- 30.02 in1016.6 mb - 0.00 in0.0 mm 0.01 in0.3 mm
07:00 AM 62.5°F16.9°C 60.5°F15.8°C 93% Calm Calm -- 30.02 in1016.6 mb - 0.01 in0.3 mm 0.01 in0.3 mm
06:45 AM 61.7°F16.5°C 59.7°F15.4°C 93% Calm Calm -- 30.02 in1016.6 mb - 0.01 in0.3 mm 0.01 in0.3 mm
06:30 AM 61.3°F16.3°C 59.3°F15.2°C 93% Calm Calm -- 30.02 in1016.6 mb - 0.01 in0.3 mm 0.01 in0.3 mm
06:15 AM 61.1°F16.2°C 59.1°F15.1°C 93% Calm Calm -- 30.02 in1016.6 mb - 0.01 in0.3 mm 0.01 in0.3 mm
06:00 AM 60.8°F16.0°C 58.8°F14.9°C 93% 1.2 mph SW1.9 kmh SW 1.2 mph1.9 kmh 30.01 in1016.3 mb - 0.00 in0.0 mm 0.00 in0.0 mm
05:45 AM 60.9°F16.1°C 58.9°F14.9°C 93% Calm Calm -- 30.02 in1016.6 mb - 0.00 in0.0 mm 0.00 in0.0 mm
05:30 AM 61.1°F16.2°C 59.1°F15.1°C 93% Calm Calm -- 30.01 in1016.3 mb - 0.00 in0.0 mm 0.00 in0.0 mm
05:15 AM 61.3°F16.3°C 59.3°F15.2°C 93% Calm Calm -- 30.02 in1016.6 mb - 0.00 in0.0 mm 0.00 in0.0 mm
05:00 AM 61.6°F16.4°C 59.6°F15.3°C 93% 1.2 mph SW1.9 kmh SW 1.2 mph1.9 kmh 30.02 in1016.6 mb - 0.00 in0.0 mm 0.00 in0.0 mm
04:45 AM 61.6°F16.4°C 59.6°F15.3°C 93% 1.2 mph SW1.9 kmh SW 1.2 mph1.9 kmh 30.01 in1016.3 mb - 0.00 in0.0 mm 0.00 in0.0 mm
04:30 AM 61.8°F16.6°C 59.8°F15.4°C 93% Calm Calm -- 30.02 in1016.6 mb - 0.00 in0.0 mm 0.00 in0.0 mm
04:15 AM 61.9°F16.6°C 59.9°F15.5°C 93% 1.2 mph SW1.9 kmh SW 1.2 mph1.9 kmh 30.01 in1016.3 mb - 0.00 in0.0 mm 0.00 in0.0 mm
04:00 AM 62.0°F16.7°C 59.9°F15.5°C 93% 1.2 mph SW1.9 kmh SW 1.2 mph1.9 kmh 30.01 in1016.3 mb - 0.00 in0.0 mm 0.00 in0.0 mm
03:45 AM 61.9°F16.6°C 59.9°F15.5°C 93% 1.2 mph SW1.9 kmh SW 2.3 mph3.7 kmh 30.00 in1015.9 mb - 0.00 in0.0 mm 0.00 in0.0 mm
03:30 AM 62.0°F16.7°C 60.0°F15.6°C 93% Calm Calm -- 30.00 in1015.9 mb - 0.00 in0.0 mm 0.00 in0.0 mm
03:15 AM 62.1°F16.7°C 60.1°F15.6°C 93% 1.2 mph SW1.9 kmh SW 1.2 mph1.9 kmh 30.00 in1015.9 mb - 0.00 in0.0 mm 0.00 in0.0 mm
03:00 AM 62.2°F16.8°C 60.2°F15.7°C 93% Calm Calm -- 30.00 in1015.9 mb - 0.00 in0.0 mm 0.00 in0.0 mm
02:45 AM 62.5°F16.9°C 60.4°F15.8°C 93% Calm Calm -- 30.01 in1016.3 mb - 0.00 in0.0 mm 0.00 in0.0 mm
02:30 AM 62.5°F16.9°C 60.5°F15.8°C 93% 1.2 mph SW1.9 kmh SW 1.2 mph1.9 kmh 30.01 in1016.3 mb - 0.00 in0.0 mm 0.00 in0.0 mm
02:15 AM 62.5°F16.9°C 60.4°F15.8°C 93% Calm Calm -- 30.01 in1016.3 mb - 0.00 in0.0 mm 0.00 in0.0 mm
02:00 AM 62.2°F16.8°C 60.2°F15.7°C 93% Calm Calm -- 30.01 in1016.3 mb - 0.00 in0.0 mm 0.00 in0.0 mm
01:45 AM 62.1°F16.7°C 60.1°F15.6°C 93% 1.2 mph SW1.9 kmh SW 2.3 mph3.7 kmh 30.02 in1016.6 mb - 0.00 in0.0 mm 0.00 in0.0 mm
01:30 AM 62.2°F16.8°C 60.2°F15.7°C 93% Calm Calm 1.2 mph1.9 kmh 30.03 in1016.9 mb - 0.00 in0.0 mm 0.00 in0.0 mm
01:15 AM 62.3°F16.8°C 60.2°F15.7°C 93% Calm Calm -- 30.04 in1017.3 mb - 0.00 in0.0 mm 0.00 in0.0 mm
01:00 AM 62.0°F16.7°C 59.7°F15.4°C 92% 2.3 mph SSE3.7 kmh SSE 2.3 mph3.7 kmh 30.03 in1016.9 mb - 0.00 in0.0 mm 0.00 in0.0 mm
12:45 AM 62.1°F16.7°C 59.7°F15.4°C 92% Calm Calm -- 30.02 in1016.6 mb - 0.00 in0.0 mm 0.00 in0.0 mm
12:30 AM 62.3°F16.8°C 59.6°F15.3°C 91% Calm Calm -- 30.03 in1016.9 mb - 0.00 in0.0 mm 0.00 in0.0 mm
12:15 AM 62.4°F16.9°C 59.7°F15.4°C 91% Calm Calm -- 30.03 in1016.9 mb - 0.00 in0.0 mm 0.00 in0.0 mm
12:01 AM 62.7°F17.1°C 60.0°F15.6°C 91% 1.2 mph SE1.9 kmh SE 1.2 mph1.9 kmh 30.03 in1016.9 mb - 0.00 in0.0 mm 0.00 in0.0 mm